Etusivu
METAR-TAF:

METAR-TAF

Lentoasemat :

Gamvik, Norja

Leveyspiiri: 71-02N, Pituuspiiri: 027-50E, korkeus merenpinnasta: 1 m

Tämänhetkinen sää

Tämä raportti tehtiin 4 tuntia ja 12 minuuttia sitten, kello 10.50 UTC
Tuuli 5 kn etelästä/kaakosta
Lämpötila -1°C
Kosteus 93%
Ilmanpaine 975 hPa
Näkyvyys: 1000 m
lumisadetta

METAR: ENMH 131050Z 16005KT 1000 SN VV009 M01/M02 Q0975

Aika: 16:02 (15:02 UTC)


TAF: puuttuu

Säähavainnot ja -ennusteet yli 4000 lentoasemalta (METAR- ja TAF-raportit).

Käytössä olevat sääasemat on merkitty karttaan keltaisilla ja punaisilla pisteillä.

Aseta hiiri pisteen päälle nähdäksesi sääaseman nimen.

Klikkaa sitten nähdäksesi säähavainnot ja -ennusteet.

Kartan vaihtaminen: klikkaa mustalla rastilla varustettuja vihreitä pisteitä, niin voit zoomata sisään; viivalla varustettua vihreää pistettä, niin voit zoomata ulos tai vihreitä nuolia, niin pääset viereisille kartoille.


METAR-TAF: